createdAt,value
2018-04-14T00:02:13.922Z,12.30
2018-04-14T00:04:42.221Z,12.20
2018-04-14T00:07:11.021Z,12.10
2018-04-14T00:09:39.353Z,12.10
2018-04-14T00:12:07.720Z,12.20
2018-04-14T00:14:36.098Z,12.10
2018-04-14T00:17:04.411Z,12.20
2018-04-14T00:19:32.789Z,12.20
2018-04-14T00:22:01.889Z,12.30
2018-04-14T00:24:31.092Z,12.40
2018-04-14T00:26:59.404Z,12.40
2018-04-14T00:29:27.705Z,12.40
2018-04-14T00:31:56.150Z,12.40
2018-04-14T00:34:24.509Z,12.40
2018-04-14T00:36:52.904Z,12.40
2018-04-14T00:39:21.210Z,12.30
2018-04-14T00:41:49.658Z,12.30
2018-04-14T00:44:17.948Z,12.30
2018-04-14T00:46:47.069Z,12.30
2018-04-14T00:49:16.134Z,12.30
2018-04-14T00:51:44.420Z,12.30
2018-04-14T00:54:13.068Z,12.30
2018-04-14T00:56:41.363Z,12.40
2018-04-14T00:59:10.437Z,12.40
2018-04-14T01:01:38.854Z,12.40
2018-04-14T01:04:07.935Z,12.40
2018-04-14T01:06:37.010Z,12.40
2018-04-14T01:09:06.113Z,12.30
2018-04-14T01:11:34.578Z,12.30
2018-04-14T01:14:02.873Z,12.40
2018-04-14T01:16:31.173Z,12.40
2018-04-14T01:18:59.560Z,12.50
2018-04-14T01:21:27.880Z,12.50
2018-04-14T01:23:56.208Z,12.40
2018-04-14T01:26:25.263Z,12.20
2018-04-14T01:28:53.589Z,12.20
2018-04-14T01:31:21.989Z,12.20
2018-04-14T01:33:50.294Z,12.20
2018-04-14T01:36:18.613Z,12.20
2018-04-14T01:38:46.917Z,12.20
2018-04-14T01:41:15.416Z,12.20
2018-04-14T01:43:43.710Z,12.00
2018-04-14T01:46:12.009Z,12.10
2018-04-14T01:48:40.534Z,12.10
2018-04-14T01:51:08.846Z,12.10
2018-04-14T01:53:37.917Z,12.10
2018-04-14T01:56:06.548Z,12.00
2018-04-14T01:58:34.853Z,12.10
2018-04-14T02:01:03.154Z,12.20
2018-04-14T02:03:32.263Z,12.10
2018-04-14T02:06:00.586Z,12.10
2018-04-14T02:08:28.923Z,12.20
2018-04-14T02:10:58.009Z,12.20
2018-04-14T02:13:26.305Z,12.20
2018-04-14T02:15:54.645Z,12.20
2018-04-14T02:18:23.740Z,12.30
2018-04-14T02:20:52.029Z,12.20
2018-04-14T02:23:20.430Z,12.30
2018-04-14T02:25:48.761Z,12.20
2018-04-14T02:28:17.853Z,12.10
2018-04-14T02:30:46.155Z,12.10
2018-04-14T02:33:14.490Z,12.10
2018-04-14T02:35:43.577Z,12.20
2018-04-14T02:38:11.904Z,12.20
2018-04-14T02:40:41.005Z,12.20
2018-04-14T02:43:09.334Z,12.20
2018-04-14T02:45:38.469Z,12.20
2018-04-14T02:48:06.804Z,12.20
2018-04-14T02:50:35.105Z,12.30
2018-04-14T02:53:03.436Z,12.20
2018-04-14T02:55:31.770Z,12.20
2018-04-14T02:58:00.072Z,12.20
2018-04-14T03:00:29.168Z,12.20
2018-04-14T03:02:57.501Z,12.20
2018-04-14T03:05:26.564Z,12.20
2018-04-14T03:07:55.163Z,12.20
2018-04-14T03:10:23.500Z,12.20
2018-04-14T03:12:51.798Z,12.10
2018-04-14T03:15:20.122Z,12.10
2018-04-14T03:17:49.215Z,12.10
2018-04-14T03:20:17.517Z,12.10
2018-04-14T03:22:45.862Z,12.10
2018-04-14T03:25:14.176Z,12.10
2018-04-14T03:27:42.468Z,12.10
2018-04-14T03:30:10.800Z,12.20
2018-04-14T03:32:39.106Z,12.20
2018-04-14T03:35:08.149Z,12.20
2018-04-14T03:37:36.460Z,12.10
2018-04-14T03:40:04.748Z,12.00
2018-04-14T03:42:33.153Z,12.00
2018-04-14T03:45:01.483Z,12.00
2018-04-14T03:47:30.550Z,12.10
2018-04-14T03:49:58.989Z,12.10
2018-04-14T03:52:27.290Z,12.10
2018-04-14T03:54:55.669Z,12.10
2018-04-14T03:57:24.004Z,12.10
2018-04-14T03:59:53.073Z,12.00
2018-04-14T04:02:21.401Z,12.00
2018-04-14T04:04:49.700Z,11.90
2018-04-14T04:07:18.020Z,11.90
2018-04-14T04:09:46.348Z,11.90
2018-04-14T04:12:15.449Z,12.00
2018-04-14T04:14:43.759Z,11.90
2018-04-14T04:17:12.053Z,11.90
2018-04-14T04:19:52.353Z,11.90
2018-04-14T04:22:33.336Z,12.00
2018-04-14T04:25:17.864Z,12.00
2018-04-14T04:27:45.921Z,12.00
2018-04-14T04:30:14.014Z,12.00
2018-04-14T04:32:42.060Z,12.00
2018-04-14T04:35:11.884Z,11.90
2018-04-14T04:37:41.521Z,11.90
2018-04-14T04:40:09.621Z,11.90
2018-04-14T04:42:37.689Z,11.90
2018-04-14T04:45:05.790Z,11.90
2018-04-14T04:47:33.877Z,12.00
2018-04-14T04:50:01.937Z,11.90
2018-04-14T04:52:30.017Z,11.80
2018-04-14T04:54:58.840Z,11.80
2018-04-14T04:57:27.692Z,11.80
2018-04-14T04:59:55.753Z,11.80
2018-04-14T05:02:24.633Z,11.90
2018-04-14T05:04:52.717Z,11.90
2018-04-14T05:07:20.772Z,11.90
2018-04-14T05:09:48.861Z,11.80
2018-04-14T05:12:17.681Z,11.80
2018-04-14T05:14:45.769Z,11.80
2018-04-14T05:17:14.613Z,11.80
2018-04-14T05:19:42.705Z,11.80
2018-04-14T05:22:10.829Z,11.70
2018-04-14T05:24:38.930Z,11.70
2018-04-14T05:27:06.996Z,11.70
2018-04-14T05:29:35.090Z,11.70
2018-04-14T05:32:03.186Z,11.60
2018-04-14T05:34:31.241Z,11.60
2018-04-14T05:36:59.331Z,11.60
2018-04-14T05:39:27.473Z,11.50
2018-04-14T05:41:55.529Z,11.40
2018-04-14T05:44:24.391Z,11.40
2018-04-14T05:46:52.455Z,11.40
2018-04-14T05:49:21.311Z,11.40
2018-04-14T05:51:49.361Z,11.40
2018-04-14T05:54:18.220Z,11.50
2018-04-14T05:56:46.268Z,11.50
2018-04-14T05:59:15.125Z,11.60
2018-04-14T06:01:43.185Z,11.60
2018-04-14T06:04:12.299Z,11.60
2018-04-14T06:06:41.132Z,11.70
2018-04-14T06:09:10.884Z,11.80
2018-04-14T06:11:38.978Z,11.80
2018-04-14T06:14:07.121Z,11.80
2018-04-14T06:16:36.770Z,12.00
2018-04-14T06:19:05.647Z,12.10
2018-04-14T06:21:33.717Z,12.00
2018-04-14T06:24:01.810Z,12.20
2018-04-14T06:26:30.121Z,12.30
2018-04-14T06:28:58.896Z,12.30
2018-04-14T06:31:26.956Z,12.30
2018-04-14T06:33:55.037Z,12.30
2018-04-14T06:36:23.229Z,12.30
2018-04-14T06:38:51.280Z,12.30
2018-04-14T06:41:20.847Z,12.40
2018-04-14T06:43:48.966Z,12.40
2018-04-14T06:46:17.028Z,12.30
2018-04-14T06:48:45.872Z,12.50
2018-04-14T06:51:13.933Z,12.50
2018-04-14T06:53:42.760Z,12.80
2018-04-14T06:56:10.843Z,12.80
2018-04-14T06:58:39.663Z,13.10
2018-04-14T07:01:08.525Z,13.10
2018-04-14T07:03:36.613Z,13.10
2018-04-14T07:06:05.439Z,13.10
2018-04-14T07:08:33.546Z,13.10
2018-04-14T07:11:01.593Z,13.10
2018-04-14T07:13:29.664Z,13.10
2018-04-14T07:15:58.519Z,13.20
2018-04-14T07:18:26.570Z,13.20
2018-04-14T07:20:54.800Z,13.20
2018-04-14T07:23:22.858Z,13.20
2018-04-14T07:25:50.917Z,13.40
2018-04-14T07:28:19.004Z,13.20
2018-04-14T07:30:47.061Z,13.10
2018-04-14T07:33:15.909Z,12.80
2018-04-14T07:35:43.992Z,12.80
2018-04-14T07:38:13.127Z,13.10
2018-04-14T07:40:41.221Z,13.10
2018-04-14T07:43:09.283Z,13.20
2018-04-14T07:45:38.878Z,13.40
2018-04-14T07:48:06.985Z,13.40
2018-04-14T07:50:35.245Z,13.60
2018-04-14T07:53:03.299Z,13.60
2018-04-14T07:55:31.360Z,13.50
2018-04-14T07:57:59.446Z,13.60
2018-04-14T08:00:27.533Z,13.60
2018-04-14T08:02:55.581Z,13.60
2018-04-14T08:05:23.673Z,13.80
2018-04-14T08:07:51.725Z,14.00
2018-04-14T08:10:19.813Z,14.00
2018-04-14T08:12:47.867Z,13.80
2018-04-14T08:15:15.977Z,13.70
2018-04-14T08:17:44.846Z,14.00
2018-04-14T08:20:12.894Z,13.90
2018-04-14T08:22:40.962Z,14.40
2018-04-14T08:25:09.057Z,14.70
2018-04-14T08:27:37.109Z,15.00
2018-04-14T08:30:05.202Z,15.20
2018-04-14T08:32:33.364Z,15.20
2018-04-14T08:35:01.617Z,15.30
2018-04-14T08:37:29.732Z,15.30
2018-04-14T08:39:58.498Z,15.10
2018-04-14T08:42:27.344Z,15.00
2018-04-14T08:44:55.396Z,15.00
2018-04-14T08:47:24.270Z,14.50
2018-04-14T08:49:52.946Z,14.50
2018-04-14T08:52:21.173Z,14.40
2018-04-14T08:54:49.237Z,14.30
2018-04-14T08:57:17.284Z,14.30
2018-04-14T08:59:45.365Z,14.50
2018-04-14T09:02:13.444Z,14.70
2018-04-14T09:04:41.534Z,15.00
2018-04-14T09:07:09.586Z,15.40
2018-04-14T09:09:37.673Z,15.60
2018-04-14T09:12:05.778Z,15.60
2018-04-14T09:14:33.830Z,15.80
2018-04-14T09:17:01.909Z,15.70
2018-04-14T09:19:30.209Z,15.90
2018-04-14T09:21:58.530Z,15.80
2018-04-14T09:24:26.847Z,15.60
2018-04-14T09:26:55.141Z,15.60
2018-04-14T09:29:29.484Z,15.80
2018-04-14T09:31:58.536Z,16.00
2018-04-14T09:34:27.626Z,16.10
2018-04-14T09:36:55.958Z,16.10
2018-04-14T09:39:25.029Z,15.70
2018-04-14T09:41:53.366Z,15.70
2018-04-14T09:44:21.702Z,15.60
2018-04-14T09:46:51.724Z,15.50
2018-04-14T09:49:20.826Z,15.60
2018-04-14T09:51:49.121Z,15.60
2018-04-14T09:54:17.720Z,16.00
2018-04-14T09:56:46.019Z,16.60
2018-04-14T09:59:14.316Z,16.90
2018-04-14T10:02:01.436Z,17.60
2018-04-14T10:04:29.796Z,17.60
2018-04-14T10:06:59.121Z,17.20
2018-04-14T10:12:01.641Z,16.80
2018-04-14T10:14:30.934Z,16.60
2018-04-14T10:16:59.266Z,16.20
2018-04-14T10:19:27.587Z,16.20
2018-04-14T10:21:55.936Z,16.20
2018-04-14T10:24:25.015Z,16.10
2018-04-14T10:26:53.372Z,16.00
2018-04-14T10:29:21.773Z,16.10
2018-04-14T10:31:50.376Z,16.00
2018-04-14T10:34:18.679Z,15.90
2018-04-14T10:36:46.985Z,16.10
2018-04-14T10:39:15.326Z,16.20
2018-04-14T10:41:43.638Z,16.30
2018-04-14T10:44:11.977Z,16.20
2018-04-14T10:46:47.191Z,16.10
2018-04-14T10:49:16.306Z,16.20
2018-04-14T10:51:44.810Z,16.10
2018-04-14T10:54:13.622Z,16.30
2018-04-14T10:57:03.338Z,16.90
2018-04-14T10:59:32.462Z,17.20
2018-04-14T11:02:00.811Z,17.20
2018-04-14T11:04:42.612Z,17.70
2018-04-14T11:07:12.703Z,18.00
2018-04-14T11:09:42.320Z,18.00
2018-04-14T11:12:10.770Z,18.30
2018-04-14T11:14:40.015Z,18.30
2018-04-14T11:17:13.038Z,17.90
2018-04-14T11:19:41.638Z,17.70
2018-04-14T11:22:09.973Z,17.70
2018-04-14T11:24:38.286Z,17.60
2018-04-14T11:27:06.639Z,17.70
2018-04-14T11:29:34.955Z,17.70
2018-04-14T11:32:03.433Z,17.70
2018-04-14T11:34:31.914Z,18.10
2018-04-14T11:37:00.323Z,18.30
2018-04-14T11:39:28.639Z,18.40
2018-04-14T11:41:57.010Z,18.20
2018-04-14T11:44:25.355Z,18.40
2018-04-14T11:46:54.459Z,19.00
2018-04-14T11:49:22.791Z,19.00
2018-04-14T11:51:51.143Z,19.50
2018-04-14T11:54:19.441Z,19.80
2018-04-14T11:56:47.753Z,19.40
2018-04-14T11:59:16.160Z,19.10
2018-04-14T12:01:50.704Z,18.70
2018-04-14T12:04:19.278Z,18.50
2018-04-14T12:06:47.789Z,18.40
2018-04-14T12:09:16.196Z,18.30
2018-04-14T12:11:45.462Z,18.40
2018-04-14T12:14:13.802Z,18.70
2018-04-14T12:16:44.896Z,19.20
2018-04-14T12:19:13.244Z,19.10
2018-04-14T12:21:41.553Z,19.40
2018-04-14T12:24:09.879Z,19.90
2018-04-14T12:26:38.991Z,19.90
2018-04-14T12:29:07.311Z,19.90
2018-04-14T12:31:36.639Z,19.90
2018-04-14T12:34:04.946Z,19.80
2018-04-14T12:36:33.370Z,19.60
2018-04-14T12:39:01.691Z,19.60
2018-04-14T12:41:30.798Z,20.30
2018-04-14T12:43:59.903Z,20.50
2018-04-14T12:46:28.384Z,20.40
2018-04-14T12:48:56.697Z,20.60
2018-04-14T12:51:25.014Z,20.50
2018-04-14T12:53:54.131Z,19.70
2018-04-14T12:56:23.204Z,19.10
2018-04-14T12:58:51.905Z,19.10
2018-04-14T13:01:20.972Z,18.40
2018-04-14T13:03:49.292Z,18.40
2018-04-14T13:06:17.642Z,18.20
2018-04-14T13:08:45.943Z,18.10
2018-04-14T13:11:14.623Z,18.10
2018-04-14T13:13:43.710Z,18.00
2018-04-14T13:16:12.802Z,17.80
2018-04-14T13:18:41.912Z,17.50
2018-04-14T13:21:10.232Z,17.50
2018-04-14T13:23:41.503Z,17.30
2018-04-14T13:26:09.860Z,17.10
2018-04-14T13:28:40.218Z,16.70
2018-04-14T13:31:10.337Z,14.80
2018-04-14T13:33:39.418Z,14.10
2018-04-14T13:36:08.707Z,14.10
2018-04-14T13:38:37.278Z,13.70
2018-04-14T13:41:06.613Z,13.40
2018-04-14T13:43:41.241Z,13.30
2018-04-14T13:46:09.761Z,13.20
2018-04-14T13:48:38.193Z,13.20
2018-04-14T13:51:06.569Z,13.20
2018-04-14T13:53:34.881Z,13.30
2018-04-14T13:56:07.234Z,13.20
2018-04-14T13:58:36.315Z,13.40
2018-04-14T14:01:04.632Z,13.40
2018-04-14T14:03:34.911Z,13.60
2018-04-14T14:06:03.236Z,13.70
2018-04-14T14:08:31.603Z,13.70
2018-04-14T14:10:59.933Z,13.70
2018-04-14T14:13:28.451Z,13.80
2018-04-14T14:15:59.532Z,13.80
2018-04-14T14:18:28.000Z,13.80
2018-04-14T14:20:56.317Z,14.00
2018-04-14T14:23:32.348Z,14.00
2018-04-14T14:26:00.655Z,14.40
2018-04-14T14:28:28.957Z,14.90
2018-04-14T14:30:58.181Z,15.50
2018-04-14T14:33:26.500Z,15.50
2018-04-14T14:35:54.826Z,15.70
2018-04-14T14:38:24.040Z,15.50
2018-04-14T14:40:57.344Z,15.50
2018-04-14T14:43:27.605Z,15.60
2018-04-14T14:45:56.715Z,16.10
2018-04-14T14:48:25.064Z,16.10
2018-04-14T14:51:00.349Z,16.20
2018-04-14T14:53:30.467Z,16.80
2018-04-14T14:55:59.598Z,17.10
2018-04-14T14:58:28.110Z,17.10
2018-04-14T15:00:56.422Z,17.40
2018-04-14T15:03:26.475Z,17.80
2018-04-14T15:05:58.582Z,17.80
2018-04-14T15:08:26.886Z,17.60
2018-04-14T15:11:02.686Z,17.40
2018-04-14T15:13:30.987Z,17.30
2018-04-14T15:15:59.308Z,17.40
2018-04-14T15:18:27.671Z,17.50
2018-04-14T15:20:56.795Z,17.40
2018-04-14T15:23:25.159Z,17.30
2018-04-14T15:25:54.543Z,17.70
2018-04-14T15:28:22.863Z,17.70
2018-04-14T15:30:51.184Z,18.20
2018-04-14T15:33:19.532Z,19.10
2018-04-14T15:35:47.839Z,20.40
2018-04-14T15:38:16.139Z,21.40
2018-04-14T15:40:45.255Z,22.80
2018-04-14T15:43:13.557Z,22.70
2018-04-14T15:45:41.871Z,23.60
2018-04-14T15:48:16.091Z,23.90
2018-04-14T15:50:44.668Z,23.80
2018-04-14T15:53:14.538Z,24.00
2018-04-14T15:55:43.172Z,24.40
2018-04-14T15:58:12.687Z,24.50
2018-04-14T16:00:41.388Z,24.20
2018-04-14T16:03:09.947Z,23.60
2018-04-14T16:05:38.567Z,23.20
2018-04-14T16:08:07.210Z,23.20
2018-04-14T16:10:35.909Z,23.10
2018-04-14T16:13:06.001Z,23.20
2018-04-14T16:15:34.851Z,23.20
2018-04-14T16:18:04.290Z,23.50
2018-04-14T16:20:33.259Z,23.50
2018-04-14T16:23:02.035Z,23.50
2018-04-14T16:25:30.629Z,23.70
2018-04-14T16:28:01.073Z,24.00
2018-04-14T16:30:29.519Z,24.00
2018-04-14T16:32:58.087Z,22.80
2018-04-14T16:35:27.400Z,21.20
2018-04-14T16:37:57.837Z,21.40
2018-04-14T16:40:26.559Z,21.40
2018-04-14T16:42:55.070Z,21.00
2018-04-14T16:45:23.717Z,20.50
2018-04-14T16:47:52.181Z,20.20
2018-04-14T16:50:20.781Z,20.10
2018-04-14T16:52:49.278Z,19.70
2018-04-14T16:55:17.627Z,19.30
2018-04-14T16:57:46.110Z,19.30
2018-04-14T17:00:14.744Z,19.20
2018-04-14T17:02:45.237Z,19.20
2018-04-14T17:05:13.980Z,19.10
2018-04-14T17:07:43.427Z,18.80
2018-04-14T17:10:12.034Z,18.50
2018-04-14T17:12:42.507Z,18.20
2018-04-14T17:15:12.879Z,17.60
2018-04-14T17:17:41.356Z,17.60
2018-04-14T17:20:09.956Z,17.40
2018-04-14T17:22:38.627Z,17.20
2018-04-14T17:25:08.022Z,17.00
2018-04-14T17:27:37.785Z,16.70
2018-04-14T17:30:06.795Z,16.70
2018-04-14T17:32:35.478Z,16.60
2018-04-14T17:35:04.168Z,16.40
2018-04-14T17:37:32.842Z,16.20
2018-04-14T17:40:01.675Z,16.10
2018-04-14T17:42:30.322Z,15.90
2018-04-14T17:44:58.920Z,16.00
2018-04-14T17:47:28.343Z,15.70
2018-04-14T17:49:56.686Z,15.70
2018-04-14T17:52:25.799Z,15.20
2018-04-14T17:54:54.112Z,15.20
2018-04-14T17:57:22.442Z,15.10
2018-04-14T17:59:50.791Z,15.20
2018-04-14T18:02:19.113Z,14.90
2018-04-14T18:04:47.460Z,14.70
2018-04-14T18:07:16.573Z,14.60
2018-04-14T18:09:44.914Z,14.50
2018-04-14T18:12:13.243Z,14.50
2018-04-14T18:14:41.575Z,14.40
2018-04-14T18:17:11.288Z,14.20
2018-04-14T18:19:40.486Z,14.10
2018-04-14T18:22:09.582Z,14.00
2018-04-14T18:24:38.687Z,13.90
2018-04-14T18:27:07.006Z,13.90
2018-04-14T18:29:35.325Z,13.90
2018-04-14T18:32:03.683Z,13.90
2018-04-14T18:34:32.039Z,13.80
2018-04-14T18:37:00.364Z,13.80
2018-04-14T18:39:28.717Z,13.80
2018-04-14T18:41:57.026Z,13.80
2018-04-14T18:44:25.378Z,13.70
2018-04-14T18:46:53.700Z,13.60
2018-04-14T18:49:22.085Z,13.50
2018-04-14T18:51:50.485Z,13.30
2018-04-14T18:54:18.794Z,13.10
2018-04-14T18:56:47.268Z,13.20
2018-04-14T18:59:15.638Z,13.00
2018-04-14T19:01:43.976Z,12.90
2018-04-14T19:04:12.290Z,12.80
2018-04-14T19:06:40.600Z,12.90
2018-04-14T19:09:09.714Z,12.90
2018-04-14T19:11:38.787Z,12.90
2018-04-14T19:14:07.139Z,12.80
2018-04-14T19:16:35.488Z,12.80
2018-04-14T19:19:04.739Z,12.70
2018-04-14T19:21:33.103Z,12.70
2018-04-14T19:24:01.449Z,12.60
2018-04-14T19:26:29.795Z,12.60
2018-04-14T19:28:58.902Z,12.60
2018-04-14T19:31:27.215Z,12.60
2018-04-14T19:33:55.554Z,12.50
2018-04-14T19:36:23.918Z,12.50
2018-04-14T19:38:53.033Z,12.50
2018-04-14T19:41:21.342Z,12.50
2018-04-14T19:43:50.010Z,12.50
2018-04-14T19:46:18.318Z,12.40
2018-04-14T19:48:47.565Z,12.30
2018-04-14T19:51:16.661Z,12.50
2018-04-14T19:53:45.746Z,12.40
2018-04-14T19:56:14.937Z,12.20
2018-04-14T19:58:43.282Z,12.20
2018-04-14T20:01:11.589Z,12.20
2018-04-14T20:03:40.703Z,12.10
2018-04-14T20:06:09.383Z,12.00
2018-04-14T20:08:38.489Z,12.00
2018-04-14T20:11:07.595Z,12.00
2018-04-14T20:13:35.951Z,12.00
2018-04-14T20:16:16.130Z,11.90
2018-04-14T20:18:51.266Z,11.80
2018-04-14T20:21:25.726Z,11.80
2018-04-14T20:23:54.038Z,11.70
2018-04-14T20:26:45.087Z,12.00
2018-04-14T20:29:19.507Z,12.00
2018-04-14T20:31:52.761Z,12.10
2018-04-14T20:34:26.594Z,11.80
2018-04-14T20:36:57.999Z,11.80
2018-04-14T20:39:26.342Z,11.50
2018-04-14T20:42:13.212Z,11.40
2018-04-14T20:44:43.266Z,11.20
2018-04-14T20:47:12.432Z,11.20
2018-04-14T20:49:41.523Z,11.20
2018-04-14T20:52:10.608Z,11.10
2018-04-14T20:54:38.954Z,11.10
2018-04-14T20:57:07.305Z,11.20
2018-04-14T20:59:35.638Z,11.20
2018-04-14T21:02:03.953Z,11.20
2018-04-14T21:04:32.307Z,11.20
2018-04-14T21:07:01.373Z,11.40
2018-04-14T21:09:30.643Z,11.30
2018-04-14T21:12:03.212Z,11.20
2018-04-14T21:14:32.594Z,11.00
2018-04-14T21:17:11.069Z,10.90
2018-04-14T21:19:39.621Z,10.90
2018-04-14T21:22:08.951Z,10.90
2018-04-14T21:24:37.288Z,10.90
2018-04-14T21:27:05.626Z,10.80
2018-04-14T21:29:33.966Z,10.80
2018-04-14T21:32:02.318Z,10.80
2018-04-14T21:34:30.630Z,10.90
2018-04-14T21:36:59.904Z,10.90
2018-04-14T21:39:28.211Z,10.90
2018-04-14T21:41:56.522Z,10.90
2018-04-14T21:44:25.699Z,10.80
2018-04-14T21:46:54.005Z,10.80
2018-04-14T21:49:23.116Z,10.70
2018-04-14T21:51:51.458Z,10.60
2018-04-14T21:54:19.782Z,10.70
2018-04-14T21:56:48.895Z,10.90
2018-04-14T21:59:17.211Z,10.80
2018-04-14T22:01:45.556Z,10.80
2018-04-14T22:04:13.868Z,10.80
2018-04-14T22:06:42.219Z,10.80
2018-04-14T22:09:10.526Z,10.60
2018-04-14T22:11:38.893Z,10.50
2018-04-14T22:14:11.242Z,10.60
2018-04-14T22:16:39.564Z,10.70
2018-04-14T22:19:08.670Z,10.50
2018-04-14T22:21:37.804Z,10.60
2018-04-14T22:24:06.127Z,10.50
2018-04-14T22:26:35.247Z,10.70
2018-04-14T22:29:03.570Z,10.70
2018-04-14T22:31:31.921Z,10.60
2018-04-14T22:34:00.262Z,10.50
2018-04-14T22:36:29.344Z,10.70
2018-04-14T22:38:57.663Z,10.60
2018-04-14T22:41:26.012Z,10.70
2018-04-14T22:44:01.733Z,10.50
2018-04-14T22:46:32.069Z,10.50
2018-04-14T22:49:00.414Z,10.60
2018-04-14T22:51:28.722Z,10.50
2018-04-14T22:53:57.091Z,10.40
2018-04-14T22:56:25.443Z,10.20
2018-04-14T22:58:53.765Z,10.10
2018-04-14T23:01:22.099Z,10.10
2018-04-14T23:03:50.488Z,10.00
2018-04-14T23:06:18.804Z,10.00
2018-04-14T23:08:47.163Z,10.20
2018-04-14T23:11:15.503Z,10.10
2018-04-14T23:13:43.832Z,10.20
2018-04-14T23:16:12.188Z,10.30
2018-04-14T23:18:40.602Z,10.10
2018-04-14T23:21:09.671Z,9.70
2018-04-14T23:23:38.016Z,9.60
2018-04-14T23:26:06.316Z,9.60
2018-04-14T23:28:34.663Z,9.60
2018-04-14T23:31:03.317Z,9.70
2018-04-14T23:33:32.387Z,9.70
2018-04-14T23:36:00.702Z,9.70
2018-04-14T23:38:29.803Z,9.60
2018-04-14T23:40:58.147Z,9.60
2018-04-14T23:43:26.495Z,9.60
2018-04-14T23:45:54.832Z,9.60
2018-04-14T23:48:23.925Z,9.30
2018-04-14T23:50:52.221Z,9.30
2018-04-14T23:53:21.491Z,9.30
2018-04-14T23:55:50.564Z,9.30
2018-04-14T23:58:18.866Z,9.30
